Time;durP1;ratioP1;P1;durP2;ratioP2;P2;SDS_P1;SDS_P2;PMS_P1;PMS_P2;Temp;Humidity;BMP_temperature;BMP_pressure;BME280_temperature;BME280_humidity;BME280_pressure;Samples;Min_cycle;Max_cycle;Signal;HPM_P1;HPM_P2
2021/11/28 00:02:20;;;;;;;10.17;7.23;;;6.40;62.80;;;;;;5022853;28;20447;-47
2021/11/28 00:04:48;;;;;;;9.23;7.90;;;6.40;62.80;;;;;;5019249;28;20447;-51
2021/11/28 00:07:41;;;;;;;11.20;7.50;;;6.20;62.70;;;;;;5021889;28;20578;-47
2021/11/28 00:10:29;;;;;;;10.00;8.30;;;6.20;63.30;;;;;;5021899;28;20454;-47
2021/11/28 00:13:04;;;;;;;10.60;8.00;;;6.30;63.10;;;;;;5022843;28;20452;-47
2021/11/28 00:15:30;;;;;;;10.33;7.40;;;6.30;63.50;;;;;;5024936;28;20455;-47
2021/11/28 00:17:56;;;;;;;10.07;7.83;;;6.50;63.00;;;;;;5025121;28;20483;-48
2021/11/28 00:20:22;;;;;;;11.93;6.80;;;6.60;62.30;;;;;;5028619;28;21018;-47
2021/11/28 00:22:48;;;;;;;8.77;7.80;;;6.40;61.90;;;;;;5027398;28;20194;-47
2021/11/28 00:25:17;;;;;;;10.67;7.77;;;6.20;62.70;;;;;;5024243;28;20189;-48
2021/11/28 00:27:45;;;;;;;8.37;7.50;;;6.10;63.80;;;;;;5025101;28;20826;-47
2021/11/28 00:30:15;;;;;;;11.57;7.90;;;5.80;63.90;;;;;;5029321;28;20436;-47
2021/11/28 00:32:41;;;;;;;9.00;7.67;;;5.60;65.20;;;;;;5027925;28;20839;-47
2021/11/28 00:35:07;;;;;;;13.33;7.67;;;5.30;66.10;;;;;;5026988;28;20490;-49
2021/11/28 00:37:32;;;;;;;10.30;7.27;;;5.30;67.60;;;;;;5022359;28;20296;-48
2021/11/28 00:39:58;;;;;;;8.40;7.07;;;5.60;66.80;;;;;;5022348;28;20550;-47
2021/11/28 00:42:24;;;;;;;8.40;7.03;;;5.70;65.60;;;;;;5024769;28;20193;-48
2021/11/28 00:44:50;;;;;;;12.33;8.23;;;6.00;65.10;;;;;;5025936;28;20280;-47
2021/11/28 00:47:15;;;;;;;10.73;8.07;;;6.20;64.30;;;;;;5023174;28;20221;-47
2021/11/28 00:49:51;;;;;;;11.87;9.00;;;6.10;63.90;;;;;;5021513;28;20649;-47
2021/11/28 00:52:17;;;;;;;10.23;8.30;;;6.00;64.00;;;;;;5024669;28;20240;-48
2021/11/28 00:54:44;;;;;;;13.73;9.53;;;5.90;64.50;;;;;;5027633;28;20447;-48
2021/11/28 00:57:09;;;;;;;11.60;9.03;;;5.90;64.50;;;;;;5027543;28;20208;-49
2021/11/28 00:59:35;;;;;;;11.53;8.77;;;6.00;64.40;;;;;;5020520;28;20439;-48
2021/11/28 01:02:01;;;;;;;10.00;8.20;;;6.10;63.80;;;;;;5021757;28;20193;-49
2021/11/28 01:04:27;;;;;;;11.80;8.37;;;6.20;63.80;;;;;;5016430;28;20205;-48
2021/11/28 01:06:53;;;;;;;10.50;7.87;;;6.40;63.40;;;;;;5024418;28;20225;-47
2021/11/28 01:09:19;;;;;;;12.70;8.47;;;6.50;62.20;;;;;;5025501;28;20451;-47
2021/11/28 01:11:45;;;;;;;11.83;7.97;;;6.60;61.70;;;;;;5021126;28;20228;-48
2021/11/28 01:14:11;;;;;;;10.00;8.40;;;6.70;61.50;;;;;;5021675;28;20519;-49
2021/11/28 01:16:37;;;;;;;10.53;8.30;;;6.80;61.50;;;;;;5020228;28;20943;-50
2021/11/28 01:19:04;;;;;;;12.60;9.20;;;6.90;61.40;;;;;;5025864;28;20283;-48
2021/11/28 01:21:31;;;;;;;13.50;10.33;;;6.90;60.80;;;;;;5022017;28;20201;-47
2021/11/28 01:23:57;;;;;;;13.90;10.43;;;6.80;61.20;;;;;;5021773;28;20440;-49
2021/11/28 01:26:22;;;;;;;14.03;9.97;;;6.80;60.90;;;;;;5020914;28;20955;-47
2021/11/28 01:28:49;;;;;;;15.93;10.87;;;6.60;62.30;;;;;;5027240;28;20440;-48
2021/11/28 01:31:14;;;;;;;11.33;8.90;;;6.70;62.30;;;;;;5022296;28;20221;-48
2021/11/28 01:33:40;;;;;;;12.93;9.00;;;6.80;62.20;;;;;;5022690;28;20972;-49
2021/11/28 01:36:06;;;;;;;13.30;9.10;;;6.80;61.70;;;;;;5025492;28;20244;-48
2021/11/28 01:38:31;;;;;;;13.57;10.30;;;6.90;61.60;;;;;;5026052;28;20267;-48
2021/11/28 01:40:57;;;;;;;13.87;9.83;;;7.00;61.20;;;;;;5024750;28;20204;-51
2021/11/28 01:43:23;;;;;;;13.97;9.30;;;7.10;60.90;;;;;;5020803;28;20197;-48
2021/11/28 01:45:51;;;;;;;12.80;8.33;;;7.00;60.70;;;;;;5021919;28;20463;-47
2021/11/28 01:48:19;;;;;;;11.10;7.97;;;7.00;60.70;;;;;;5023325;28;20959;-48
2021/11/28 01:50:49;;;;;;;10.57;8.33;;;7.00;60.70;;;;;;5021206;28;20775;-49
2021/11/28 01:53:24;;;;;;;13.40;8.93;;;7.10;60.80;;;;;;5023077;28;20443;-48
2021/11/28 01:55:50;;;;;;;10.33;8.37;;;7.00;60.00;;;;;;5024605;28;20523;-47
2021/11/28 01:58:16;;;;;;;13.63;9.40;;;6.90;60.60;;;;;;5030389;28;20483;-47
2021/11/28 02:00:52;;;;;;;10.43;8.13;;;6.90;61.20;;;;;;5022857;28;20443;-49
2021/11/28 02:03:19;;;;;;;9.93;8.20;;;7.00;61.20;;;;;;5020936;28;20443;-47
2021/11/28 02:05:53;;;;;;;12.40;8.70;;;7.10;60.80;;;;;;5027024;28;20479;-48
2021/11/28 02:08:19;;;;;;;9.97;8.23;;;7.20;60.50;;;;;;5022406;28;20569;-47
2021/11/28 02:10:46;;;;;;;12.90;8.50;;;7.30;60.30;;;;;;5024780;28;20444;-47
2021/11/28 02:13:13;;;;;;;11.00;8.60;;;7.30;59.90;;;;;;5020241;28;20442;-48
2021/11/28 02:15:39;;;;;;;13.00;9.63;;;7.30;60.00;;;;;;5022308;28;20447;-48
2021/11/28 02:18:05;;;;;;;13.20;9.30;;;7.40;59.90;;;;;;5027583;28;21048;-51
2021/11/28 02:20:32;;;;;;;11.50;9.13;;;7.40;59.80;;;;;;5028011;28;20276;-49
2021/11/28 02:22:59;;;;;;;10.80;8.20;;;7.40;59.80;;;;;;5023909;28;20551;-48
2021/11/28 02:25:25;;;;;;;10.10;8.50;;;7.40;59.80;;;;;;5023722;28;20436;-47
2021/11/28 02:27:55;;;;;;;9.73;7.67;;;7.40;59.70;;;;;;5028138;28;20583;-48
2021/11/28 02:30:21;;;;;;;9.50;7.53;;;7.40;59.50;;;;;;5022450;28;20530;-47
2021/11/28 02:32:48;;;;;;;11.77;7.90;;;7.50;59.70;;;;;;5023645;28;20967;-47
2021/11/28 02:35:15;;;;;;;10.97;8.30;;;7.50;59.40;;;;;;5020778;28;20440;-48
2021/11/28 02:37:42;;;;;;;9.93;8.10;;;7.50;59.40;;;;;;5023438;28;20432;-47
2021/11/28 02:40:14;;;;;;;12.20;9.60;;;7.60;59.50;;;;;;5024782;28;21522;-48
2021/11/28 02:42:41;;;;;;;10.63;8.63;;;7.60;59.40;;;;;;5027338;28;20435;-47
2021/11/28 02:45:08;;;;;;;10.47;7.80;;;7.50;59.30;;;;;;5026575;28;20440;-49
2021/11/28 02:47:34;;;;;;;9.87;7.70;;;7.40;59.50;;;;;;5026146;28;20480;-48
2021/11/28 02:49:59;;;;;;;10.50;9.10;;;7.50;59.70;;;;;;5023397;28;20923;-47
2021/11/28 02:55:30;;;;;;;11.97;8.40;;;7.30;59.40;;;;;;4984618;23;20247;-48
2021/11/28 02:57:57;;;;;;;11.67;7.97;;;7.40;59.40;;;;;;4961261;28;20450;-49
2021/11/28 03:00:24;;;;;;;9.60;7.97;;;7.40;59.50;;;;;;4960869;28;20455;-48
2021/11/28 03:02:50;;;;;;;10.87;8.50;;;7.30;59.50;;;;;;4960543;28;20470;-50
2021/11/28 03:05:16;;;;;;;10.70;8.17;;;7.40;59.60;;;;;;4963887;28;20451;-47
2021/11/28 03:07:42;;;;;;;9.63;8.17;;;7.40;59.50;;;;;;4968009;28;20231;-47
2021/11/28 03:10:33;;;;;;;11.93;7.80;;;7.30;59.40;;;;;;4959339;28;20432;-49
2021/11/28 03:13:00;;;;;;;11.60;7.47;;;7.40;59.60;;;;;;4969703;28;20194;-48
2021/11/28 03:15:26;;;;;;;7.93;6.77;;;7.40;59.50;;;;;;4967320;28;20538;-48
2021/11/28 03:17:52;;;;;;;10.30;7.07;;;7.30;59.40;;;;;;4968800;28;20435;-49
2021/11/28 03:20:18;;;;;;;8.47;7.57;;;7.20;59.90;;;;;;4959901;28;20431;-48
2021/11/28 03:22:47;;;;;;;8.90;7.30;;;7.10;60.30;;;;;;4960814;28;20438;-47
2021/11/28 03:25:15;;;;;;;9.00;7.57;;;7.10;60.70;;;;;;4967842;28;20447;-47
2021/11/28 03:27:40;;;;;;;7.73;6.40;;;7.10;60.30;;;;;;4954989;28;20498;-47
2021/11/28 03:30:06;;;;;;;9.87;7.80;;;7.10;60.20;;;;;;4963801;28;20493;-47
2021/11/28 03:32:32;;;;;;;7.83;7.03;;;7.10;60.40;;;;;;4961192;28;20192;-47
2021/11/28 03:34:57;;;;;;;7.23;6.40;;;7.20;60.10;;;;;;4971138;28;20195;-49
2021/11/28 03:37:23;;;;;;;7.50;6.47;;;7.30;59.90;;;;;;4962505;28;20218;-47
2021/11/28 03:39:49;;;;;;;8.10;6.20;;;7.30;59.60;;;;;;4970075;28;20203;-48
2021/11/28 03:42:15;;;;;;;6.90;5.60;;;7.30;59.10;;;;;;4966878;28;20188;-48
2021/11/28 03:44:40;;;;;;;7.77;6.03;;;7.10;59.60;;;;;;4966295;28;20658;-47
2021/11/28 03:47:06;;;;;;;5.40;4.80;;;7.00;60.70;;;;;;4971243;28;20258;-47
2021/11/28 03:49:32;;;;;;;6.67;5.73;;;7.10;60.20;;;;;;4969300;28;20187;-48
2021/11/28 03:51:58;;;;;;;6.70;5.43;;;7.10;60.00;;;;;;4961798;28;20199;-48
2021/11/28 03:54:24;;;;;;;9.83;6.73;;;7.00;60.10;;;;;;4965357;28;20239;-47
2021/11/28 03:56:50;;;;;;;8.40;6.80;;;7.00;60.30;;;;;;4974479;28;20478;-47
2021/11/28 03:59:16;;;;;;;8.10;6.33;;;7.00;60.00;;;;;;4970445;28;20884;-47
2021/11/28 04:01:42;;;;;;;7.93;6.73;;;6.90;60.30;;;;;;4970488;28;20441;-47
2021/11/28 04:04:08;;;;;;;8.97;6.93;;;6.90;60.60;;;;;;4964857;28;20198;-47
2021/11/28 04:06:34;;;;;;;8.33;6.30;;;6.80;60.90;;;;;;4969162;28;20203;-48
2021/11/28 04:09:02;;;;;;;8.10;6.60;;;6.70;61.10;;;;;;4965354;28;20199;-48
2021/11/28 04:11:28;;;;;;;8.00;6.10;;;6.80;61.10;;;;;;4965245;28;20457;-49
2021/11/28 04:13:53;;;;;;;8.87;6.33;;;6.90;60.80;;;;;;4970708;28;20439;-48
2021/11/28 04:16:19;;;;;;;6.00;5.40;;;7.10;60.30;;;;;;4967079;28;20259;-47
2021/11/28 04:18:45;;;;;;;6.97;6.10;;;7.10;60.10;;;;;;4965974;28;20306;-49
2021/11/28 04:21:10;;;;;;;8.03;5.90;;;7.20;59.90;;;;;;4963616;28;20662;-50
2021/11/28 04:23:37;;;;;;;7.00;5.40;;;7.20;59.80;;;;;;4968232;28;20192;-47
2021/11/28 04:26:03;;;;;;;7.97;6.53;;;7.20;59.90;;;;;;4967883;28;20227;-48
2021/11/28 04:28:29;;;;;;;6.60;5.90;;;7.30;59.80;;;;;;4965891;28;20985;-49
2021/11/28 04:30:55;;;;;;;8.27;6.47;;;7.40;59.70;;;;;;4967200;28;20446;-47
2021/11/28 04:33:21;;;;;;;8.17;7.37;;;7.40;59.60;;;;;;4965434;28;20591;-48
2021/11/28 04:35:48;;;;;;;7.50;6.80;;;7.40;59.50;;;;;;4966193;28;20207;-49
2021/11/28 04:38:14;;;;;;;11.83;7.40;;;7.40;59.50;;;;;;4962538;28;20447;-48
2021/11/28 04:40:40;;;;;;;9.00;7.40;;;7.40;59.40;;;;;;4965882;28;20836;-48
2021/11/28 04:43:06;;;;;;;7.00;5.90;;;7.40;59.50;;;;;;4961640;28;20512;-47
2021/11/28 04:45:32;;;;;;;8.60;6.67;;;7.50;59.80;;;;;;4963492;28;20534;-47
2021/11/28 04:47:57;;;;;;;8.73;5.57;;;7.50;59.60;;;;;;4965003;28;20234;-47
2021/11/28 04:50:23;;;;;;;8.10;6.70;;;7.50;59.40;;;;;;4964600;28;22048;-47
2021/11/28 04:52:49;;;;;;;7.53;5.93;;;7.60;59.20;;;;;;4967449;28;20191;-51
2021/11/28 04:55:15;;;;;;;7.03;5.80;;;7.60;59.20;;;;;;4955549;28;20227;-48
2021/11/28 04:57:41;;;;;;;8.33;7.33;;;7.60;59.10;;;;;;4968029;28;20704;-47
2021/11/28 05:00:12;;;;;;;7.50;6.07;;;7.70;59.00;;;;;;4962636;28;20939;-50
2021/11/28 05:02:39;;;;;;;7.57;6.30;;;7.70;58.90;;;;;;4964975;28;20459;-49
2021/11/28 05:05:05;;;;;;;8.87;6.87;;;7.70;58.80;;;;;;4969047;28;20509;-48
2021/11/28 05:07:31;;;;;;;9.70;7.80;;;7.70;58.70;;;;;;4971606;28;21013;-50
2021/11/28 05:09:57;;;;;;;10.00;8.70;;;7.70;58.90;;;;;;4967361;28;20456;-48
2021/11/28 05:12:22;;;;;;;8.20;7.10;;;7.80;58.80;;;;;;4970851;28;20203;-47
2021/11/28 05:14:48;;;;;;;10.43;8.00;;;7.80;58.70;;;;;;4970607;28;20187;-49
2021/11/28 05:17:14;;;;;;;7.83;6.63;;;7.80;58.60;;;;;;4971142;28;20709;-49
2021/11/28 05:19:40;;;;;;;8.27;6.27;;;7.80;58.70;;;;;;4971113;28;20250;-48
2021/11/28 05:22:06;;;;;;;6.80;6.10;;;7.70;58.80;;;;;;4970206;28;20993;-47
2021/11/28 05:24:31;;;;;;;7.13;6.40;;;7.80;59.00;;;;;;4967846;28;20568;-48
2021/11/28 05:26:57;;;;;;;7.63;6.43;;;7.70;59.00;;;;;;4971124;28;20307;-47
2021/11/28 05:29:22;;;;;;;9.03;6.83;;;7.70;59.10;;;;;;4967808;28;20575;-48
2021/11/28 05:31:48;;;;;;;5.80;5.20;;;7.70;59.20;;;;;;4967934;28;20195;-47
2021/11/28 05:34:14;;;;;;;6.87;6.17;;;7.70;59.30;;;;;;4969557;28;20196;-49
2021/11/28 05:36:39;;;;;;;7.23;6.53;;;7.80;59.40;;;;;;4968916;28;20206;-47
2021/11/28 05:39:05;;;;;;;10.87;6.50;;;7.80;60.10;;;;;;4969622;28;20578;-47
2021/11/28 05:41:31;;;;;;;11.80;10.70;;;7.80;59.50;;;;;;4968588;28;20246;-48
2021/11/28 05:43:57;;;;;;;8.27;7.43;;;7.80;59.30;;;;;;4969959;28;20203;-48
2021/11/28 05:46:22;;;;;;;8.87;7.00;;;7.90;59.20;;;;;;4967601;28;20409;-48
2021/11/28 05:48:48;;;;;;;7.67;6.90;;;7.90;59.30;;;;;;4968688;28;20199;-47
2021/11/28 05:51:14;;;;;;;7.60;6.43;;;7.90;59.30;;;;;;4968354;28;20647;-49
2021/11/28 05:53:40;;;;;;;7.40;6.10;;;7.90;59.40;;;;;;4964768;28;20266;-49
2021/11/28 05:56:05;;;;;;;7.17;6.40;;;7.90;59.50;;;;;;4959384;28;20443;-47
2021/11/28 05:58:31;;;;;;;8.17;6.73;;;7.90;59.40;;;;;;4959051;28;20196;-49
2021/11/28 06:00:57;;;;;;;7.50;5.63;;;7.90;59.40;;;;;;4967368;28;20242;-48
2021/11/28 06:03:23;;;;;;;9.30;5.80;;;7.90;59.30;;;;;;4963841;28;20521;-48
2021/11/28 06:05:49;;;;;;;7.90;7.10;;;7.90;59.20;;;;;;4961492;28;20258;-48
2021/11/28 06:08:15;;;;;;;7.00;5.50;;;7.90;59.10;;;;;;4966432;28;20496;-47
2021/11/28 06:10:40;;;;;;;9.47;6.33;;;7.90;59.80;;;;;;4962194;28;21515;-48
2021/11/28 06:13:06;;;;;;;8.30;6.23;;;7.90;59.40;;;;;;4959070;28;20214;-49
2021/11/28 06:15:32;;;;;;;7.63;5.80;;;7.90;59.30;;;;;;4961296;28;20208;-47
2021/11/28 06:17:58;;;;;;;8.20;6.50;;;7.80;59.40;;;;;;4961254;28;20200;-48
2021/11/28 06:20:23;;;;;;;7.53;5.70;;;7.80;59.40;;;;;;4965827;28;20195;-48
2021/11/28 06:22:52;;;;;;;8.33;6.03;;;7.80;59.20;;;;;;4960070;28;20674;-48
2021/11/28 06:25:18;;;;;;;7.47;6.50;;;7.80;59.40;;;;;;4954215;28;20198;-47
2021/11/28 06:27:44;;;;;;;7.83;7.03;;;7.80;59.10;;;;;;4959969;28;20858;-48
2021/11/28 06:30:11;;;;;;;8.40;6.70;;;7.60;59.40;;;;;;4960430;28;20446;-47
2021/11/28 06:32:37;;;;;;;7.73;6.93;;;7.60;59.40;;;;;;4965599;28;20196;-48
2021/11/28 06:35:04;;;;;;;10.00;6.93;;;7.50;59.40;;;;;;4966208;28;20454;-48
2021/11/28 06:37:29;;;;;;;8.97;6.10;;;7.50;59.70;;;;;;4964873;28;20581;-48
2021/11/28 06:39:55;;;;;;;15.87;6.67;;;7.70;60.70;;;;;;4961217;28;20561;-48
2021/11/28 06:42:20;;;;;;;7.97;6.90;;;8.00;62.80;;;;;;4961687;28;20726;-48
2021/11/28 06:44:46;;;;;;;8.10;6.23;;;8.30;63.50;;;;;;4959772;28;20207;-47
2021/11/28 06:47:13;;;;;;;6.87;5.90;;;8.60;62.70;;;;;;4970144;28;20242;-47
2021/11/28 06:49:39;;;;;;;8.93;6.67;;;8.90;61.70;;;;;;4963361;28;20195;-47
2021/11/28 06:52:05;;;;;;;8.87;6.37;;;9.20;60.70;;;;;;4960205;28;20445;-47
2021/11/28 06:54:31;;;;;;;9.60;7.17;;;9.30;59.90;;;;;;4958523;28;20470;-48
2021/11/28 06:56:57;;;;;;;7.07;5.60;;;9.50;59.10;;;;;;4959492;28;20450;-48
2021/11/28 06:59:23;;;;;;;6.70;5.90;;;9.50;58.00;;;;;;4964010;28;20354;-47
2021/11/28 07:01:49;;;;;;;8.10;6.40;;;9.60;57.60;;;;;;4962576;28;20456;-47
2021/11/28 07:04:15;;;;;;;6.37;5.60;;;9.60;56.80;;;;;;4967078;28;20439;-48
2021/11/28 07:06:41;;;;;;;8.30;6.40;;;9.70;56.70;;;;;;4971013;28;20434;-47
2021/11/28 07:09:06;;;;;;;6.70;5.07;;;9.70;56.30;;;;;;4970398;28;20202;-48
2021/11/28 07:11:32;;;;;;;6.33;5.60;;;9.70;55.50;;;;;;4968915;28;20199;-48
2021/11/28 07:13:58;;;;;;;6.17;5.60;;;9.40;55.70;;;;;;4963159;28;20287;-48
2021/11/28 07:16:24;;;;;;;8.13;6.77;;;9.10;55.50;;;;;;4969901;28;20590;-47
2021/11/28 07:18:50;;;;;;;7.53;6.13;;;9.10;56.40;;;;;;4967208;28;20191;-47
2021/11/28 07:21:16;;;;;;;8.73;6.73;;;9.20;56.40;;;;;;4970762;28;20207;-47
2021/11/28 07:23:45;;;;;;;6.00;5.23;;;9.30;56.20;;;;;;4966534;28;20431;-48
2021/11/28 07:26:11;;;;;;;7.20;5.70;;;9.50;55.90;;;;;;4971835;28;20434;-47
2021/11/28 07:28:37;;;;;;;6.97;6.07;;;9.70;55.50;;;;;;4974779;28;20970;-49
2021/11/28 07:31:02;;;;;;;10.63;5.70;;;9.80;55.20;;;;;;4971473;28;20681;-47
2021/11/28 07:33:28;;;;;;;7.57;5.40;;;9.80;55.00;;;;;;4968107;28;20461;-47
2021/11/28 07:35:54;;;;;;;6.30;5.40;;;9.80;54.90;;;;;;4974363;28;20265;-46
2021/11/28 07:38:20;;;;;;;8.07;6.30;;;9.90;55.10;;;;;;4972879;28;20199;-47
2021/11/28 07:40:45;;;;;;;7.43;6.60;;;9.90;54.80;;;;;;4968686;28;20198;-46
2021/11/28 07:43:13;;;;;;;9.23;8.00;;;9.90;55.00;;;;;;4971694;28;20270;-46
2021/11/28 07:45:39;;;;;;;10.00;8.00;;;9.90;54.90;;;;;;4968915;28;20206;-46
2021/11/28 07:48:05;;;;;;;9.40;7.13;;;9.90;54.50;;;;;;4966905;28;20474;-46
2021/11/28 07:50:31;;;;;;;7.40;6.53;;;9.90;54.20;;;;;;4966558;28;20222;-46
2021/11/28 07:52:57;;;;;;;7.07;6.23;;;9.60;54.80;;;;;;4966558;28;20203;-46
2021/11/28 07:55:23;;;;;;;5.60;5.10;;;9.50;55.30;;;;;;4967037;28;20481;-47
2021/11/28 07:57:48;;;;;;;6.27;5.67;;;9.30;55.30;;;;;;4964609;28;20187;-50
2021/11/28 08:00:14;;;;;;;6.50;5.40;;;9.30;55.20;;;;;;4974528;28;20184;-48
2021/11/28 08:02:40;;;;;;;7.23;6.53;;;9.20;55.50;;;;;;4965709;28;20230;-50
2021/11/28 08:05:07;;;;;;;7.00;6.30;;;9.20;56.00;;;;;;4963799;28;20442;-46
2021/11/28 08:07:32;;;;;;;7.53;6.27;;;9.20;55.70;;;;;;4967066;28;20301;-51
2021/11/28 08:09:58;;;;;;;6.97;6.27;;;9.30;55.80;;;;;;4966122;28;20431;-47
2021/11/28 08:12:25;;;;;;;7.80;6.60;;;9.30;55.50;;;;;;4963433;28;20604;-50
2021/11/28 08:14:52;;;;;;;7.73;6.67;;;9.30;55.70;;;;;;4963881;28;20515;-46
2021/11/28 08:17:17;;;;;;;6.60;5.90;;;9.30;55.60;;;;;;4964913;28;20454;-47
2021/11/28 08:19:44;;;;;;;6.23;5.63;;;9.30;55.50;;;;;;4962247;28;20457;-51
2021/11/28 08:22:10;;;;;;;8.73;7.10;;;9.40;55.50;;;;;;4962521;28;22140;-49
2021/11/28 08:24:36;;;;;;;6.40;5.80;;;9.50;55.40;;;;;;4963807;28;20449;-52
2021/11/28 08:27:02;;;;;;;8.13;5.73;;;9.50;55.20;;;;;;4973153;28;21049;-50
2021/11/28 08:29:28;;;;;;;6.77;6.07;;;9.60;54.90;;;;;;4962146;28;20255;-49
2021/11/28 08:31:54;;;;;;;7.57;5.97;;;9.60;55.30;;;;;;4970891;28;20517;-50
2021/11/28 08:34:21;;;;;;;5.87;5.27;;;9.60;55.20;;;;;;4964666;28;20227;-46
2021/11/28 08:36:47;;;;;;;8.37;6.20;;;9.70;55.30;;;;;;4962558;28;20192;-46
2021/11/28 08:39:13;;;;;;;6.53;5.67;;;9.60;55.00;;;;;;4967549;28;20930;-49
2021/11/28 08:41:42;;;;;;;6.40;5.73;;;9.70;55.00;;;;;;4962054;28;20431;-49
2021/11/28 08:44:08;;;;;;;9.70;6.30;;;9.80;54.80;;;;;;4961951;28;20491;-50
2021/11/28 08:46:34;;;;;;;7.73;5.43;;;9.90;54.90;;;;;;4962447;28;20471;-50
2021/11/28 08:49:01;;;;;;;7.00;5.77;;;9.90;54.60;;;;;;4966930;28;20858;-50
2021/11/28 08:51:28;;;;;;;7.90;6.77;;;10.00;53.50;;;;;;4965377;28;20533;-50
2021/11/28 08:53:56;;;;;;;10.30;5.20;;;10.10;53.30;;;;;;4926528;28;1127438;-51
2021/11/28 08:56:23;;;;;;;8.63;6.50;;;10.00;59.00;;;;;;4967731;28;20195;-48
2021/11/28 08:58:49;;;;;;;6.67;5.97;;;10.40;57.80;;;;;;4965159;28;20487;-52
2021/11/28 09:01:15;;;;;;;8.03;7.23;;;10.40;54.70;;;;;;4971256;28;20439;-48
2021/11/28 09:03:41;;;;;;;8.00;7.20;;;10.10;53.30;;;;;;4973022;28;20942;-51
2021/11/28 09:06:08;;;;;;;10.30;7.50;;;9.90;54.30;;;;;;4969404;28;20322;-51
2021/11/28 09:08:35;;;;;;;8.63;7.20;;;9.80;54.60;;;;;;4970975;28;20361;-50
2021/11/28 09:11:01;;;;;;;7.97;7.17;;;9.70;54.90;;;;;;4970449;28;20438;-51
2021/11/28 09:13:27;;;;;;;8.83;7.03;;;9.60;55.00;;;;;;4970045;28;20856;-48
2021/11/28 09:15:53;;;;;;;9.10;7.13;;;9.50;55.30;;;;;;4969164;28;20442;-48
2021/11/28 09:18:27;;;;;;;9.33;7.30;;;9.40;55.40;;;;;;4970650;28;20203;-51
2021/11/28 09:20:58;;;;;;;9.00;6.87;;;9.40;55.60;;;;;;4970682;28;20206;-50
2021/11/28 09:26:08;;;;;;;9.23;8.30;;;9.30;55.70;;;;;;4973120;28;20430;-50
2021/11/28 09:28:36;;;;;;;11.37;8.60;;;9.30;55.90;;;;;;4973129;28;20513;-50
2021/11/28 09:31:04;;;;;;;11.10;8.83;;;9.30;56.20;;;;;;4972906;28;20191;-50
2021/11/28 09:33:30;;;;;;;9.57;8.37;;;9.30;56.30;;;;;;4971163;28;20897;-48
2021/11/28 09:35:55;;;;;;;13.07;8.97;;;9.30;56.30;;;;;;4972370;28;20454;-50
2021/11/28 09:38:21;;;;;;;11.33;9.00;;;9.20;56.20;;;;;;4967566;28;20250;-48
2021/11/28 09:40:50;;;;;;;10.97;8.70;;;9.10;56.50;;;;;;4971443;28;20187;-47
2021/11/28 09:43:16;;;;;;;13.17;10.07;;;9.10;56.70;;;;;;4971871;28;20199;-49
2021/11/28 09:45:45;;;;;;;21.63;13.87;;;9.10;57.00;;;;;;4971225;28;20441;-51
2021/11/28 09:48:11;;;;;;;32.73;19.07;;;9.10;57.10;;;;;;4970668;28;20907;-47
2021/11/28 09:50:38;;;;;;;33.10;18.00;;;9.10;57.10;;;;;;4971910;28;20992;-51
2021/11/28 09:53:05;;;;;;;17.07;12.47;;;9.10;57.40;;;;;;4971785;28;20952;-48
2021/11/28 09:55:31;;;;;;;19.37;13.03;;;9.10;57.80;;;;;;4972341;28;20522;-49
2021/11/28 09:57:57;;;;;;;15.73;11.67;;;9.10;57.80;;;;;;4972580;28;20431;-50
2021/11/28 10:00:23;;;;;;;13.57;11.70;;;9.10;57.70;;;;;;4968553;28;20430;-48
2021/11/28 10:02:49;;;;;;;11.63;9.73;;;9.10;57.80;;;;;;4971678;28;21008;-51
2021/11/28 10:05:15;;;;;;;9.80;8.80;;;9.10;58.00;;;;;;4969529;28;20533;-48
2021/11/28 10:07:46;;;;;;;12.30;9.83;;;9.10;58.50;;;;;;4971189;28;20923;-47
2021/11/28 10:10:14;;;;;;;11.63;10.03;;;9.10;58.40;;;;;;4970498;28;20812;-48
2021/11/28 10:12:45;;;;;;;11.83;9.77;;;9.10;58.50;;;;;;4969270;28;20454;-51
2021/11/28 10:15:16;;;;;;;11.00;9.50;;;9.20;58.60;;;;;;4959397;28;20493;-50
2021/11/28 10:17:42;;;;;;;12.63;9.83;;;9.10;58.20;;;;;;4966511;28;20435;-51
2021/11/28 10:20:14;;;;;;;10.83;9.73;;;9.20;58.30;;;;;;4968963;28;20449;-48
2021/11/28 10:22:40;;;;;;;10.83;9.77;;;9.20;58.40;;;;;;4966261;28;20673;-47
2021/11/28 10:25:24;;;;;;;10.13;9.07;;;9.30;58.50;;;;;;4970505;28;20453;-48
2021/11/28 10:27:53;;;;;;;12.70;10.23;;;9.30;58.50;;;;;;4966018;28;21269;-47
2021/11/28 10:30:43;;;;;;;15.33;10.80;;;9.20;58.10;;;;;;4964435;28;20438;-47
2021/11/28 10:33:15;;;;;;;12.67;11.37;;;9.30;58.40;;;;;;4958425;28;20538;-47
2021/11/28 10:36:10;;;;;;;14.10;11.20;;;9.30;58.40;;;;;;4965135;28;20444;-48
2021/11/28 10:38:43;;;;;;;15.50;11.83;;;9.40;58.50;;;;;;4961071;28;20447;-47
2021/11/28 10:41:24;;;;;;;14.27;11.63;;;9.40;58.50;;;;;;4963421;28;20448;-51
2021/11/28 10:43:50;;;;;;;12.63;10.70;;;9.50;58.60;;;;;;4960268;28;20871;-48
2021/11/28 10:46:42;;;;;;;12.83;11.43;;;9.50;58.60;;;;;;4966095;28;20443;-47
2021/11/28 10:49:13;;;;;;;13.30;10.13;;;9.50;58.40;;;;;;4958421;28;20478;-47
2021/11/28 10:51:42;;;;;;;14.43;10.73;;;9.50;58.30;;;;;;4965970;28;20479;-48
2021/11/28 10:54:30;;;;;;;10.33;9.30;;;9.60;58.50;;;;;;4968852;28;20474;-47
2021/11/28 10:57:10;;;;;;;11.60;9.40;;;9.60;58.10;;;;;;4966224;28;20455;-47
2021/11/28 10:59:41;;;;;;;11.83;9.60;;;9.50;58.00;;;;;;4962303;28;20493;-52
2021/11/28 11:02:27;;;;;;;12.73;10.20;;;9.50;58.10;;;;;;4963086;28;20470;-47
2021/11/28 11:04:54;;;;;;;13.47;11.13;;;9.60;58.20;;;;;;4960986;28;20574;-47
2021/11/28 11:07:22;;;;;;;14.87;11.03;;;9.60;58.10;;;;;;4962605;28;20474;-51
2021/11/28 11:09:49;;;;;;;13.00;10.90;;;9.60;58.10;;;;;;4964373;28;20505;-47
2021/11/28 11:12:21;;;;;;;14.87;12.03;;;9.70;57.90;;;;;;4962732;28;20521;-52
2021/11/28 11:14:48;;;;;;;11.20;9.97;;;9.60;57.50;;;;;;4965330;28;21062;-51
2021/11/28 11:17:14;;;;;;;13.17;11.37;;;9.70;58.00;;;;;;4965189;28;20498;-48
2021/11/28 11:19:45;;;;;;;15.13;12.53;;;9.70;58.00;;;;;;4969796;28;20938;-48
2021/11/28 11:22:30;;;;;;;10.97;9.90;;;9.70;57.60;;;;;;4968636;28;20446;-49
2021/11/28 11:24:58;;;;;;;11.47;8.77;;;9.70;57.50;;;;;;4967449;28;20557;-47
2021/11/28 11:27:36;;;;;;;9.40;7.20;;;9.80;58.20;;;;;;4967424;28;20873;-48
2021/11/28 11:30:17;;;;;;;9.83;7.93;;;9.80;57.20;;;;;;4963830;28;20462;-47
2021/11/28 11:32:51;;;;;;;9.43;7.27;;;9.90;56.90;;;;;;4964002;28;21291;-48
2021/11/28 11:35:29;;;;;;;8.13;7.27;;;9.90;56.60;;;;;;4969629;28;20850;-47
2021/11/28 11:38:03;;;;;;;11.50;9.10;;;9.90;56.00;;;;;;4968729;28;20518;-47
2021/11/28 11:40:28;;;;;;;11.90;8.57;;;9.90;55.80;;;;;;4968062;28;20431;-48
2021/11/28 11:42:54;;;;;;;13.27;10.27;;;10.00;54.70;;;;;;4965003;28;20443;-48
2021/11/28 11:45:23;;;;;;;8.20;7.40;;;10.00;54.70;;;;;;4967497;28;20203;-47
2021/11/28 11:47:49;;;;;;;9.93;7.30;;;10.00;54.70;;;;;;4966547;28;20339;-47
2021/11/28 11:50:18;;;;;;;9.00;7.40;;;10.10;54.90;;;;;;4964043;28;20450;-50
2021/11/28 11:52:45;;;;;;;7.90;6.60;;;10.10;54.90;;;;;;4960286;28;20439;-49
2021/11/28 11:55:19;;;;;;;12.67;9.17;;;10.10;54.60;;;;;;4965807;28;20495;-47
2021/11/28 11:58:18;;;;;;;10.67;8.40;;;10.10;54.80;;;;;;4963300;28;20454;-47
2021/11/28 12:01:01;;;;;;;15.53;9.77;;;10.10;54.70;;;;;;4960412;28;20447;-47
2021/11/28 12:03:27;;;;;;;17.03;10.70;;;10.10;54.50;;;;;;4967978;28;20462;-48
2021/11/28 12:05:58;;;;;;;15.93;11.10;;;10.10;54.50;;;;;;4965807;28;20487;-47
2021/11/28 12:08:25;;;;;;;12.57;9.20;;;10.10;54.50;;;;;;4965528;28;20865;-49
2021/11/28 12:11:03;;;;;;;13.60;10.37;;;10.10;54.80;;;;;;4966646;28;20440;-49
2021/11/28 12:13:29;;;;;;;12.13;9.33;;;10.10;55.00;;;;;;4968644;28;20442;-47
2021/11/28 12:16:16;;;;;;;13.83;7.93;;;10.10;55.40;;;;;;4967588;28;20430;-47
2021/11/28 12:18:46;;;;;;;9.23;7.73;;;10.10;55.50;;;;;;4958579;28;20290;-48
2021/11/28 12:21:20;;;;;;;10.13;9.07;;;10.10;55.40;;;;;;4968703;28;20766;-47
2021/11/28 12:24:06;;;;;;;8.80;7.90;;;10.00;55.30;;;;;;4968210;28;20437;-50
2021/11/28 12:26:33;;;;;;;10.33;7.67;;;10.10;55.40;;;;;;4973572;28;20450;-48
2021/11/28 12:29:11;;;;;;;13.17;10.17;;;10.10;55.00;;;;;;4968147;28;20610;-50
2021/11/28 12:31:46;;;;;;;9.97;8.07;;;10.10;54.70;;;;;;4967919;28;20449;-48
2021/11/28 12:34:22;;;;;;;10.97;9.30;;;10.10;54.70;;;;;;4980236;28;20442;-49
2021/11/28 12:36:54;;;;;;;11.30;7.97;;;10.00;55.00;;;;;;4965662;28;20506;-49
2021/11/28 12:39:21;;;;;;;8.03;6.93;;;10.10;55.30;;;;;;4969294;28;20449;-48
2021/11/28 12:41:54;;;;;;;8.33;6.93;;;10.10;55.40;;;;;;4966923;28;20457;-48
2021/11/28 12:44:28;;;;;;;8.40;7.60;;;10.10;55.10;;;;;;4967016;28;20473;-48
2021/11/28 12:46:58;;;;;;;8.00;7.20;;;10.20;54.80;;;;;;4958736;28;20482;-49
2021/11/28 12:49:35;;;;;;;9.40;6.70;;;10.20;55.10;;;;;;4964162;28;20447;-50
2021/11/28 12:52:22;;;;;;;9.97;6.60;;;10.30;56.80;;;;;;4968258;28;20477;-49
2021/11/28 12:55:07;;;;;;;7.07;6.37;;;10.60;57.60;;;;;;4969352;28;20493;-49
2021/11/28 12:58:01;;;;;;;8.27;6.83;;;10.90;57.30;;;;;;4970833;28;20500;-49
2021/11/28 13:00:39;;;;;;;7.57;6.77;;;11.20;56.40;;;;;;4971970;28;21087;-49
2021/11/28 13:03:10;;;;;;;9.50;8.50;;;11.40;55.20;;;;;;4970706;28;20462;-48